Time;durP1;ratioP1;P1;durP2;ratioP2;P2;SDS_P1;SDS_P2;PMS_P1;PMS_P2;Temp;Humidity;BMP_temperature;BMP_pressure;BME280_temperature;BME280_humidity;BME280_pressure;Samples;Min_cycle;Max_cycle;Signal;HPM_P1;HPM_P2
2021/11/16 00:02:03;;;;;;;132.77;103.97;;;21.60;51.80;;;;;;4780745;55;20994;-29
2021/11/16 00:07:05;;;;;;;138.07;106.20;;;21.60;51.90;;;;;;4778487;55;20990;-30
2021/11/16 00:12:07;;;;;;;128.50;102.15;;;21.60;51.80;;;;;;4857342;55;21655;-29
2021/11/16 00:17:08;;;;;;;136.45;104.45;;;21.60;51.80;;;;;;4753694;55;21065;-25
2021/11/16 00:22:16;;;;;;;133.05;104.25;;;21.60;51.70;;;;;;4739496;55;21033;-31
2021/11/16 00:27:16;;;;;;;;;;;21.60;51.80;;;;;;4747299;55;21636;-29
2021/11/16 00:32:17;;;;;;;132.45;103.93;;;21.60;51.70;;;;;;4737585;55;20096;-30
2021/11/16 00:37:25;;;;;;;131.30;101.97;;;21.60;51.70;;;;;;4745623;55;21578;-27
2021/11/16 00:42:30;;;;;;;131.93;104.05;;;21.50;51.60;;;;;;4741249;55;21614;-29
2021/11/16 00:47:31;;;;;;;131.05;103.87;;;21.60;51.60;;;;;;4761772;55;21085;-27
2021/11/16 00:52:31;;;;;;;125.12;96.68;;;21.60;52.20;;;;;;4747181;55;21492;-21
2021/11/16 00:57:32;;;;;;;127.43;98.78;;;21.60;51.50;;;;;;4754450;55;21161;-29
2021/11/16 01:02:34;;;;;;;128.80;100.25;;;21.60;51.50;;;;;;4750776;55;21124;-29
2021/11/16 01:07:35;;;;;;;128.30;99.32;;;21.60;51.50;;;;;;4764183;55;21439;-29
2021/11/16 01:12:36;;;;;;;125.15;98.03;;;21.60;51.50;;;;;;4757677;55;21061;-31
2021/11/16 01:17:38;;;;;;;125.65;97.60;;;21.60;51.40;;;;;;4745474;55;21026;-27
2021/11/16 01:22:39;;;;;;;119.43;93.70;;;21.60;51.40;;;;;;4762524;55;21026;-31
2021/11/16 01:27:40;;;;;;;124.50;98.60;;;21.60;51.40;;;;;;4737867;59;21018;-29
2021/11/16 01:32:46;;;;;;;125.00;98.40;;;21.60;51.30;;;;;;4744341;55;21082;-20
2021/11/16 01:37:46;;;;;;;121.53;94.13;;;21.60;51.30;;;;;;4755010;55;21085;-28
2021/11/16 01:42:50;;;;;;;121.15;95.25;;;21.60;51.30;;;;;;4747621;55;21057;-29
2021/11/16 01:47:52;;;;;;;121.62;94.78;;;21.50;51.20;;;;;;4743305;55;20982;-29
2021/11/16 01:52:54;;;;;;;118.78;94.10;;;21.60;51.20;;;;;;4749721;55;21508;-27
2021/11/16 01:57:56;;;;;;;118.95;93.70;;;21.50;51.20;;;;;;4787692;55;20990;-24
2021/11/16 02:02:57;;;;;;;118.10;93.68;;;21.50;51.10;;;;;;4777275;55;21053;-29
2021/11/16 02:07:58;;;;;;;117.30;90.43;;;21.50;51.10;;;;;;4782583;55;21034;-32
2021/11/16 02:12:59;;;;;;;113.50;90.15;;;21.50;51.10;;;;;;4750850;55;21030;-31
2021/11/16 02:18:00;;;;;;;116.45;92.22;;;21.50;51.10;;;;;;4738157;59;21074;-31
2021/11/16 02:23:03;;;;;;;115.05;90.78;;;21.50;51.10;;;;;;4739099;55;21536;-30
2021/11/16 02:28:05;;;;;;;116.57;90.10;;;21.50;51.00;;;;;;4790123;55;21045;-27
2021/11/16 02:33:06;;;;;;;117.57;91.18;;;21.60;51.10;;;;;;4749779;55;21029;-28
2021/11/16 02:38:07;;;;;;;114.65;90.00;;;21.50;51.00;;;;;;4738579;59;21777;-28
2021/11/16 02:43:09;;;;;;;114.28;90.47;;;21.50;50.90;;;;;;4780373;55;21122;-27
2021/11/16 02:48:13;;;;;;;114.60;89.90;;;21.50;50.90;;;;;;4792884;55;20997;-18
2021/11/16 02:53:14;;;;;;;111.07;85.65;;;21.50;50.90;;;;;;4805943;55;21491;-29
2021/11/16 02:58:16;;;;;;;111.53;87.00;;;21.50;50.90;;;;;;4754738;55;22031;-29
2021/11/16 03:03:20;;;;;;;109.50;84.50;;;21.50;50.90;;;;;;4789757;55;21066;-21
2021/11/16 03:08:26;;;;;;;103.60;83.10;;;21.50;50.80;;;;;;4738433;59;21034;-27
2021/11/16 03:13:36;;;;;;;105.87;84.13;;;21.50;50.80;;;;;;4763277;55;21627;-27
2021/11/16 03:18:37;;;;;;;109.72;85.55;;;21.50;50.80;;;;;;4741029;55;21623;-27
2021/11/16 03:23:42;;;;;;;106.35;82.62;;;21.50;50.80;;;;;;4764671;55;21102;-26
2021/11/16 03:28:47;;;;;;;104.95;82.18;;;21.50;50.70;;;;;;4761320;55;21006;-18
2021/11/16 03:33:49;;;;;;;103.65;80.18;;;21.50;50.80;;;;;;4739379;55;21516;-29
2021/11/16 03:38:51;;;;;;;104.57;81.93;;;21.50;50.70;;;;;;4764950;55;21065;-27
2021/11/16 03:43:54;;;;;;;103.38;80.28;;;21.50;51.30;;;;;;4771174;55;20994;-24
2021/11/16 03:48:55;;;;;;;100.47;79.55;;;21.50;50.70;;;;;;4748023;55;21496;-27
2021/11/16 03:53:56;;;;;;;97.28;75.87;;;21.50;50.60;;;;;;4744151;55;21042;-21
2021/11/16 03:58:57;;;;;;;103.40;79.15;;;21.50;50.60;;;;;;4758232;55;21516;-26
2021/11/16 04:04:00;;;;;;;103.32;78.43;;;21.50;50.60;;;;;;4772051;55;21125;-26
2021/11/16 04:09:03;;;;;;;99.43;77.97;;;21.50;50.70;;;;;;4739062;55;21532;-29
2021/11/16 04:14:04;;;;;;;99.30;77.78;;;21.50;50.60;;;;;;4737679;56;21057;-24
2021/11/16 04:19:05;;;;;;;97.72;75.82;;;21.50;50.60;;;;;;4776831;55;21496;-27
2021/11/16 04:24:06;;;;;;;97.22;75.97;;;21.50;50.50;;;;;;4746237;55;21575;-18
2021/11/16 04:29:07;;;;;;;94.70;75.22;;;21.50;50.50;;;;;;4755000;55;21006;-32
2021/11/16 04:34:10;;;;;;;94.03;73.05;;;21.50;50.40;;;;;;4797810;55;21691;-24
2021/11/16 04:39:11;;;;;;;94.68;74.55;;;21.50;50.40;;;;;;4756239;55;20986;-25
2021/11/16 04:44:12;;;;;;;92.43;72.65;;;21.50;50.40;;;;;;4748171;55;21535;-31
2021/11/16 04:49:25;;;;;;;92.40;72.43;;;21.50;50.40;;;;;;4754192;55;21014;-28
2021/11/16 04:55:54;;;;;;;92.78;71.87;;;21.50;50.50;;;;;;4756241;55;21611;-32
2021/11/16 05:06:15;;;;;;;88.62;69.95;;;21.50;50.40;;;;;;4738186;55;21622;-28
2021/11/16 05:11:18;;;;;;;89.00;69.35;;;21.50;50.40;;;;;;4737659;55;21177;-29
2021/11/16 05:16:21;;;;;;;87.25;68.22;;;21.50;50.40;;;;;;4738123;59;20997;-29
2021/11/16 05:21:22;;;;;;;89.43;69.53;;;21.50;50.40;;;;;;4746777;55;21010;-27
2021/11/16 05:26:24;;;;;;;86.78;67.22;;;21.50;50.40;;;;;;4786878;55;21464;-24
2021/11/16 05:31:26;;;;;;;86.80;68.18;;;21.50;50.40;;;;;;4757566;55;21619;-22
2021/11/16 05:36:27;;;;;;;85.65;66.87;;;21.50;50.40;;;;;;4764013;55;21456;-29
2021/11/16 05:41:28;;;;;;;79.35;63.63;;;21.50;50.40;;;;;;4749190;55;21005;-29
2021/11/16 05:46:29;;;;;;;86.10;65.95;;;21.50;50.50;;;;;;4772998;55;21010;-28
2021/11/16 05:51:31;;;;;;;85.65;65.43;;;21.50;50.60;;;;;;4751568;55;21641;-30
2021/11/16 05:56:34;;;;;;;80.87;64.37;;;21.50;50.70;;;;;;4805537;55;21660;-28
2021/11/16 06:01:37;;;;;;;82.85;63.75;;;21.50;50.70;;;;;;4737715;55;21318;-34
2021/11/16 06:06:39;;;;;;;84.13;64.78;;;21.50;50.70;;;;;;4757432;55;21509;-29
2021/11/16 06:11:40;;;;;;;79.75;63.17;;;21.50;50.80;;;;;;4737632;55;21583;-27
2021/11/16 06:16:41;;;;;;;80.40;62.53;;;21.50;50.80;;;;;;4767645;55;21093;-32
2021/11/16 06:21:42;;;;;;;79.10;61.45;;;21.50;50.70;;;;;;4824224;55;21058;-31
2021/11/16 06:26:43;;;;;;;77.97;60.60;;;21.50;50.70;;;;;;4756478;55;21144;-28
2021/11/16 06:31:44;;;;;;;77.93;59.88;;;21.50;50.70;;;;;;4774415;55;21947;-23
2021/11/16 06:36:47;;;;;;;76.82;60.63;;;21.50;50.60;;;;;;4755865;55;21092;-30
2021/11/16 06:41:49;;;;;;;77.53;59.38;;;21.40;50.50;;;;;;4753068;55;21563;-23
2021/11/16 06:46:52;;;;;;;71.30;57.10;;;21.50;50.50;;;;;;4779501;55;21191;-32
2021/11/16 06:51:56;;;;;;;75.97;60.22;;;21.50;50.40;;;;;;4743028;55;21599;-35
2021/11/16 06:56:58;;;;;;;79.03;60.45;;;21.40;50.30;;;;;;4763430;55;20997;-30
2021/11/16 07:01:59;;;;;;;73.30;58.72;;;21.40;50.30;;;;;;4746949;55;21480;-22
2021/11/16 07:07:01;;;;;;;77.22;60.97;;;21.40;50.30;;;;;;4741237;55;21022;-17
2021/11/16 07:12:10;;;;;;;74.18;58.60;;;21.50;50.40;;;;;;4768489;55;21203;-22
2021/11/16 07:17:14;;;;;;;77.62;59.20;;;21.40;50.30;;;;;;4749079;55;21029;-32
2021/11/16 07:22:39;;;;;;;74.57;59.08;;;21.40;50.30;;;;;;4758397;55;21062;-32
2021/11/16 07:27:51;;;;;;;75.47;59.25;;;21.40;50.30;;;;;;4738288;55;22205;-31
2021/11/16 07:32:55;;;;;;;73.82;57.83;;;21.40;50.20;;;;;;4754222;55;21054;-28
2021/11/16 07:38:02;;;;;;;74.37;59.80;;;21.50;50.20;;;;;;4760102;55;21038;-31
2021/11/16 07:43:08;;;;;;;74.15;57.72;;;21.50;50.10;;;;;;4760067;55;20998;-22
2021/11/16 07:48:21;;;;;;;72.78;57.90;;;21.50;50.10;;;;;;4737961;59;21009;-30
2021/11/16 07:53:34;;;;;;;73.03;57.85;;;21.40;50.10;;;;;;4749885;55;21006;-30
2021/11/16 07:58:54;;;;;;;71.30;57.05;;;21.50;50.10;;;;;;4747251;55;21080;-35
2021/11/16 08:05:02;;;;;;;75.32;59.65;;;21.40;50.70;;;;;;4738202;59;21064;-29
2021/11/16 08:10:06;;;;;;;86.25;67.82;;;21.50;50.10;;;;;;4741072;55;21512;-32
2021/11/16 08:15:11;;;;;;;93.47;69.87;;;21.40;47.20;;;;;;4738155;55;21605;-32
2021/11/16 08:20:14;;;;;;;93.62;70.30;;;21.30;45.40;;;;;;4737837;59;21005;-27
2021/11/16 08:25:16;;;;;;;95.60;71.62;;;21.30;45.40;;;;;;4785036;55;21038;-28
2021/11/16 08:30:20;;;;;;;94.18;73.00;;;21.30;45.50;;;;;;4740608;55;21229;-30
2021/11/16 08:35:24;;;;;;;105.60;76.15;;;21.40;45.20;;;;;;4753958;55;21033;-29
2021/11/16 08:40:32;;;;;;;107.47;78.80;;;21.40;45.20;;;;;;4766080;55;21492;-25
2021/11/16 08:45:40;;;;;;;104.03;78.12;;;21.40;45.10;;;;;;4758629;55;21006;-32
2021/11/16 08:50:56;;;;;;;108.25;76.82;;;21.40;45.90;;;;;;4738046;55;21472;-30
2021/11/16 08:55:58;;;;;;;104.65;76.80;;;21.50;46.00;;;;;;4736879;59;21041;-33
2021/11/16 09:01:03;;;;;;;98.37;75.22;;;21.60;46.30;;;;;;4747586;55;21073;-28
2021/11/16 09:06:19;;;;;;;98.10;72.72;;;21.60;46.80;;;;;;4742446;55;21065;-25
2021/11/16 09:11:22;;;;;;;93.60;70.72;;;21.70;47.50;;;;;;4752818;55;21053;-25
2021/11/16 09:16:28;;;;;;;98.62;73.80;;;21.70;47.10;;;;;;4736531;55;21619;-29
2021/11/16 09:21:38;;;;;;;91.55;71.72;;;21.70;47.30;;;;;;4786293;55;21504;-27
2021/11/16 09:27:10;;;;;;;92.88;70.80;;;21.80;47.60;;;;;;4762342;55;21496;-28
2021/11/16 09:32:14;;;;;;;91.45;72.15;;;21.80;47.70;;;;;;4742436;55;21532;-28
2021/11/16 09:37:18;;;;;;;89.95;70.95;;;21.80;47.70;;;;;;4767013;55;21496;-29
2021/11/16 09:42:28;;;;;;;88.80;67.65;;;21.80;47.70;;;;;;4760207;55;21512;-29
2021/11/16 09:47:39;;;;;;;112.25;84.68;;;21.80;49.80;;;;;;4757956;55;20978;-34
2021/11/16 09:52:46;;;;;;;101.10;80.62;;;21.80;47.50;;;;;;4770795;55;20994;-32
2021/11/16 09:57:56;;;;;;;120.47;88.53;;;21.80;47.70;;;;;;4745349;55;22257;-26
2021/11/16 10:03:13;;;;;;;114.43;88.28;;;21.80;47.80;;;;;;4738269;55;21038;-30
2021/11/16 10:08:17;;;;;;;121.97;91.03;;;21.90;48.30;;;;;;4758612;55;21543;-34
2021/11/16 10:13:23;;;;;;;119.82;91.85;;;21.90;48.60;;;;;;4745777;55;22186;-31
2021/11/16 10:18:26;;;;;;;117.90;91.90;;;22.00;48.60;;;;;;4737732;59;21109;-28
2021/11/16 10:23:41;;;;;;;113.53;87.45;;;21.90;48.70;;;;;;4798941;55;21535;-27
2021/11/16 10:28:47;;;;;;;113.25;92.22;;;22.00;49.00;;;;;;4743266;55;21415;-31
2021/11/16 10:33:50;;;;;;;119.60;91.30;;;22.00;49.20;;;;;;4741196;55;21101;-28
2021/11/16 10:38:58;;;;;;;120.32;94.28;;;22.10;49.70;;;;;;4773451;55;21475;-29
2021/11/16 10:44:03;;;;;;;122.22;92.88;;;22.10;50.00;;;;;;4760864;55;21598;-29
2021/11/16 10:49:09;;;;;;;115.18;93.05;;;22.10;50.10;;;;;;4742042;55;21530;-28
2021/11/16 10:54:15;;;;;;;117.32;91.75;;;22.20;50.40;;;;;;4761014;55;21475;-23
2021/11/16 10:59:26;;;;;;;124.57;94.65;;;22.20;50.60;;;;;;4768052;55;21523;-30
2021/11/16 11:04:32;;;;;;;119.95;92.60;;;22.20;50.70;;;;;;4742735;55;20986;-29
2021/11/16 11:09:32;;;;;;;120.45;94.25;;;22.30;51.10;;;;;;4751562;55;21503;-34
2021/11/16 11:14:36;;;;;;;122.32;92.20;;;22.30;51.30;;;;;;4774373;55;21010;-32
2021/11/16 11:19:40;;;;;;;127.10;98.37;;;22.40;51.40;;;;;;4787552;55;21335;-34
2021/11/16 11:24:50;;;;;;;121.45;95.55;;;22.30;51.30;;;;;;4742262;55;20986;-32
2021/11/16 11:30:01;;;;;;;130.07;102.40;;;22.30;51.20;;;;;;4742786;55;21559;-35
2021/11/16 11:35:35;;;;;;;125.62;99.72;;;22.30;51.20;;;;;;4750991;55;21017;-32
2021/11/16 11:40:40;;;;;;;125.50;99.37;;;22.30;51.40;;;;;;4741568;55;21523;-30
2021/11/16 11:45:45;;;;;;;135.45;105.15;;;22.30;51.40;;;;;;4771444;55;21970;-34
2021/11/16 11:50:52;;;;;;;129.50;102.87;;;22.30;51.50;;;;;;4756531;55;21073;-31
2021/11/16 11:55:57;;;;;;;131.63;102.82;;;22.30;51.60;;;;;;4737655;55;21021;-31
2021/11/16 12:01:02;;;;;;;123.28;99.05;;;22.40;51.70;;;;;;4754716;55;21021;-30
2021/11/16 12:06:03;;;;;;;132.70;104.28;;;22.40;51.80;;;;;;4751960;55;21018;-29
2021/11/16 12:11:05;;;;;;;134.70;106.30;;;22.40;52.00;;;;;;4748193;55;21511;-28
2021/11/16 12:16:21;;;;;;;138.25;109.53;;;22.40;52.00;;;;;;4746948;55;21029;-30
2021/11/16 12:22:14;;;;;;;132.73;106.43;;;22.40;52.30;;;;;;4758353;55;21062;-30
2021/11/16 12:27:18;;;;;;;126.28;102.32;;;22.50;52.50;;;;;;4744958;55;21058;-33
2021/11/16 12:32:32;;;;;;;133.63;104.25;;;22.50;52.80;;;;;;4765405;55;21045;-31
2021/11/16 12:37:53;;;;;;;140.23;107.57;;;22.50;52.60;;;;;;4771627;55;20990;-30
2021/11/16 12:43:18;;;;;;;139.55;107.25;;;22.50;52.50;;;;;;4791025;55;21125;-33
2021/11/16 12:48:39;;;;;;;131.68;104.55;;;22.50;52.50;;;;;;4744868;55;21499;-29
2021/11/16 12:54:27;;;;;;;129.60;104.82;;;22.40;52.30;;;;;;4754913;55;21623;-24
2021/11/16 13:00:01;;;;;;;137.95;105.63;;;22.40;52.20;;;;;;4783941;55;21097;-33
2021/11/16 13:05:11;;;;;;;126.03;103.65;;;22.40;52.10;;;;;;4748989;55;21555;-35
2021/11/16 13:10:19;;;;;;;132.30;107.18;;;22.40;52.10;;;;;;4754805;55;21118;-35
2021/11/16 13:15:41;;;;;;;135.60;105.50;;;22.40;52.00;;;;;;4767230;55;21057;-29
2021/11/16 13:20:54;;;;;;;131.90;107.65;;;22.40;51.90;;;;;;4738448;59;21009;-35
2021/11/16 13:26:07;;;;;;;133.32;107.72;;;22.40;51.90;;;;;;4772104;55;21487;-31
2021/11/16 13:31:41;;;;;;;129.87;105.55;;;22.40;51.90;;;;;;4751277;55;21491;-32
2021/11/16 13:36:48;;;;;;;130.20;104.57;;;22.30;51.80;;;;;;4747665;55;21491;-30
2021/11/16 13:42:32;;;;;;;123.70;102.12;;;22.40;51.70;;;;;;4745422;55;21455;-33
2021/11/16 13:47:41;;;;;;;127.50;105.22;;;22.40;51.90;;;;;;4742646;55;21092;-30
2021/11/16 13:52:48;;;;;;;129.60;106.90;;;22.40;52.00;;;;;;4751582;55;21523;-29
2021/11/16 13:57:53;;;;;;;130.98;107.93;;;22.40;52.20;;;;;;4773560;55;21065;-31
2021/11/16 14:03:02;;;;;;;126.12;106.25;;;22.50;52.40;;;;;;4758758;55;21503;-30
2021/11/16 14:08:08;;;;;;;128.85;104.45;;;22.50;52.50;;;;;;4737476;59;21060;-31
2021/11/16 14:13:26;;;;;;;125.62;104.70;;;22.50;52.60;;;;;;4743913;55;21567;-33
2021/11/16 14:18:27;;;;;;;128.50;105.72;;;22.50;52.70;;;;;;4740486;55;21282;-30
2021/11/16 14:23:31;;;;;;;129.23;103.85;;;22.50;52.90;;;;;;4743450;55;21049;-32
2021/11/16 14:28:35;;;;;;;127.22;102.72;;;22.60;52.80;;;;;;4753391;55;21452;-34
2021/11/16 14:33:57;;;;;;;124.12;100.62;;;22.60;53.60;;;;;;4737840;55;21151;-35
2021/11/16 14:39:05;;;;;;;122.93;101.85;;;22.60;53.00;;;;;;4752074;55;21104;-33
2021/11/16 14:44:09;;;;;;;122.32;101.97;;;22.60;53.10;;;;;;4833954;55;21030;-31
2021/11/16 14:49:10;;;;;;;125.07;104.10;;;22.50;53.00;;;;;;4735943;56;21073;-35
2021/11/16 14:54:13;;;;;;;122.82;100.57;;;22.50;53.00;;;;;;4737376;59;21549;-20
2021/11/16 14:59:21;;;;;;;125.25;101.32;;;22.50;53.10;;;;;;4753958;55;21440;-20
2021/11/16 15:04:30;;;;;;;128.35;103.95;;;22.50;53.00;;;;;;4745664;55;21106;-34
2021/11/16 15:09:31;;;;;;;131.23;104.32;;;22.50;52.50;;;;;;4743001;55;21038;-28
2021/11/16 15:14:42;;;;;;;128.00;101.32;;;22.50;52.40;;;;;;4762205;55;21050;-28
2021/11/16 15:20:02;;;;;;;124.87;101.68;;;22.50;52.20;;;;;;4746536;55;21080;-30
2021/11/16 15:25:16;;;;;;;128.52;103.40;;;22.50;52.20;;;;;;4743115;55;21480;-32
2021/11/16 15:30:32;;;;;;;120.00;99.55;;;22.40;52.00;;;;;;4743609;55;21053;-31
2021/11/16 15:36:37;;;;;;;124.87;102.70;;;22.40;51.90;;;;;;4763163;55;21069;-32
2021/11/16 15:41:47;;;;;;;128.25;102.35;;;22.40;52.00;;;;;;4771825;55;21078;-32
2021/11/16 15:53:45;;;;;;;119.65;98.18;;;22.40;52.00;;;;;;4739181;55;21075;-28
2021/11/16 15:58:54;;;;;;;122.62;101.57;;;22.50;52.10;;;;;;4751427;55;21581;-26
2021/11/16 16:03:58;;;;;;;128.57;104.63;;;22.50;52.20;;;;;;4737522;59;21079;-31
2021/11/16 16:09:03;;;;;;;127.62;103.20;;;22.40;52.10;;;;;;4737414;59;21081;-30
2021/11/16 16:14:19;;;;;;;129.20;104.28;;;22.40;52.70;;;;;;4737767;55;21573;-32
2021/11/16 16:19:23;;;;;;;125.32;101.65;;;22.40;52.10;;;;;;4753632;55;21096;-32
2021/11/16 16:24:24;;;;;;;128.80;105.25;;;22.30;52.00;;;;;;4747156;55;20998;-35
2021/11/16 16:29:25;;;;;;;124.62;104.82;;;22.30;52.00;;;;;;4758884;55;21042;-31
2021/11/16 16:34:26;;;;;;;130.20;103.00;;;22.30;52.00;;;;;;4749233;55;21097;-31
2021/11/16 16:39:28;;;;;;;130.55;106.22;;;22.20;51.90;;;;;;4743232;55;21014;-28
2021/11/16 16:44:29;;;;;;;133.57;107.28;;;22.20;51.90;;;;;;4770677;55;21065;-32
2021/11/16 16:49:30;;;;;;;133.15;108.80;;;22.20;51.90;;;;;;4755831;55;21030;-33
2021/11/16 16:54:31;;;;;;;137.75;110.40;;;22.20;52.00;;;;;;4795208;55;21479;-34
2021/11/16 16:59:33;;;;;;;130.68;107.40;;;22.10;51.90;;;;;;4750801;55;21090;-28
2021/11/16 17:04:50;;;;;;;130.70;106.47;;;22.10;51.90;;;;;;4778283;55;21508;-32
2021/11/16 17:09:52;;;;;;;132.35;108.50;;;22.10;51.90;;;;;;4795424;55;21607;-24
2021/11/16 17:14:53;;;;;;;135.07;110.32;;;22.00;51.80;;;;;;4779689;55;21139;-33
2021/11/16 17:19:55;;;;;;;136.68;111.88;;;22.00;51.80;;;;;;4762189;55;21017;-35
2021/11/16 17:24:57;;;;;;;133.32;110.00;;;22.10;51.80;;;;;;4738244;59;21578;-35
2021/11/16 17:29:59;;;;;;;140.30;115.53;;;22.00;51.80;;;;;;4738268;59;21487;-28
2021/11/16 17:35:01;;;;;;;135.55;112.15;;;22.00;51.80;;;;;;4742513;55;21014;-28
2021/11/16 17:40:04;;;;;;;137.75;110.00;;;22.00;51.80;;;;;;4745999;55;21563;-30
2021/11/16 17:45:05;;;;;;;134.35;110.07;;;21.90;51.70;;;;;;4765837;55;21058;-33
2021/11/16 17:50:10;;;;;;;138.50;110.45;;;22.00;51.70;;;;;;4738432;59;20998;-30
2021/11/16 17:55:11;;;;;;;136.93;111.47;;;22.00;51.60;;;;;;4760620;55;21010;-32
2021/11/16 18:00:13;;;;;;;136.62;113.20;;;21.90;51.60;;;;;;4769649;55;21069;-29
2021/11/16 18:05:38;;;;;;;136.37;109.03;;;21.90;51.60;;;;;;4761281;55;20986;-30
2021/11/16 18:10:48;;;;;;;138.60;112.03;;;21.90;52.20;;;;;;4769810;55;21598;-33
2021/11/16 18:15:49;;;;;;;141.75;115.07;;;21.90;51.50;;;;;;4747153;55;22439;-33
2021/11/16 18:20:50;;;;;;;136.20;109.65;;;21.90;51.60;;;;;;4756505;55;21061;-34
2021/11/16 18:25:53;;;;;;;135.95;110.95;;;21.90;51.50;;;;;;4746955;55;21547;-32
2021/11/16 18:30:54;;;;;;;139.10;111.12;;;21.90;51.50;;;;;;4743736;55;21532;-22
2021/11/16 18:35:55;;;;;;;139.48;113.47;;;21.90;51.50;;;;;;4756192;55;21062;-28
2021/11/16 18:41:09;;;;;;;141.02;113.50;;;21.90;51.50;;;;;;4752200;55;21005;-30
2021/11/16 18:46:25;;;;;;;139.05;112.00;;;21.90;51.50;;;;;;4758967;55;21524;-31
2021/11/16 18:51:27;;;;;;;142.85;115.45;;;21.90;51.50;;;;;;4768933;55;21598;-26
2021/11/16 18:56:30;;;;;;;137.82;113.25;;;21.90;51.50;;;;;;4757196;55;21002;-32
2021/11/16 19:01:31;;;;;;;136.65;111.40;;;21.90;51.50;;;;;;4796561;55;21476;-33
2021/11/16 19:06:33;;;;;;;141.82;113.43;;;21.80;51.40;;;;;;4780231;55;22005;-32
2021/11/16 19:11:33;;;;;;;136.45;111.68;;;21.90;51.50;;;;;;4738341;59;22074;-29
2021/11/16 19:16:36;;;;;;;139.80;112.82;;;21.90;51.50;;;;;;4753438;55;21125;-33
2021/11/16 19:21:37;;;;;;;138.37;111.50;;;21.90;51.50;;;;;;4759037;55;21511;-31
2021/11/16 19:26:40;;;;;;;142.57;115.10;;;21.90;51.50;;;;;;4737533;59;21050;-28
2021/11/16 19:31:41;;;;;;;137.95;112.78;;;21.90;51.50;;;;;;4738511;55;21615;-27
2021/11/16 19:36:43;;;;;;;138.75;113.03;;;21.90;51.50;;;;;;4774135;55;21073;-32
2021/11/16 19:41:45;;;;;;;138.15;113.68;;;21.80;51.40;;;;;;4754007;55;21070;-32
2021/11/16 19:46:50;;;;;;;140.62;113.72;;;21.90;51.40;;;;;;4750814;55;21527;-34
2021/11/16 19:51:51;;;;;;;140.73;115.53;;;21.80;51.40;;;;;;4751096;55;21487;-31
2021/11/16 19:56:51;;;;;;;141.82;117.35;;;21.80;51.40;;;;;;4739225;55;21053;-29
2021/11/16 20:01:52;;;;;;;138.77;112.57;;;21.80;51.40;;;;;;4738045;59;21065;-34
2021/11/16 20:06:53;;;;;;;136.55;112.78;;;21.80;51.40;;;;;;4767734;55;21058;-34
2021/11/16 20:11:55;;;;;;;141.93;116.95;;;21.80;52.10;;;;;;4781314;55;21062;-34
2021/11/16 20:16:56;;;;;;;139.07;113.70;;;21.80;51.40;;;;;;4738256;55;21492;-34
2021/11/16 20:21:57;;;;;;;138.70;114.45;;;21.80;51.40;;;;;;4772452;55;21499;-34
2021/11/16 20:26:59;;;;;;;138.23;113.45;;;21.80;51.40;;;;;;4737429;56;21065;-31
2021/11/16 20:32:05;;;;;;;136.15;110.65;;;21.80;51.40;;;;;;4737845;56;21504;-34
2021/11/16 20:37:07;;;;;;;143.32;114.70;;;21.80;51.40;;;;;;4758538;55;21468;-34
2021/11/16 20:42:32;;;;;;;143.48;115.65;;;21.80;51.40;;;;;;4754716;55;21508;-28
2021/11/16 21:03:22;;;;;;;142.95;112.80;;;21.80;51.30;;;;;;4737992;55;21065;-28
2021/11/16 21:08:23;;;;;;;140.70;115.88;;;21.80;51.40;;;;;;4751022;55;21571;-34
2021/11/16 21:13:25;;;;;;;142.60;113.90;;;21.80;51.30;;;;;;4748528;55;21014;-30
2021/11/16 21:18:26;;;;;;;144.95;114.15;;;21.80;51.30;;;;;;4758890;55;21487;-32
2021/11/16 21:23:26;;;;;;;143.50;115.20;;;21.80;51.90;;;;;;4748312;55;21177;-33
2021/11/16 21:28:28;;;;;;;140.90;114.05;;;21.80;51.30;;;;;;4738285;55;20993;-33
2021/11/16 21:33:29;;;;;;;142.57;113.90;;;21.80;51.30;;;;;;4773098;55;21006;-34
2021/11/16 21:38:29;;;;;;;145.68;116.05;;;21.80;51.30;;;;;;4741448;55;21209;-33
2021/11/16 21:43:31;;;;;;;145.62;117.68;;;21.80;51.20;;;;;;4763383;55;21093;-32
2021/11/16 21:48:32;;;;;;;144.37;113.97;;;21.80;51.30;;;;;;4757933;55;21468;-27
2021/11/16 21:53:33;;;;;;;140.43;112.65;;;21.80;51.20;;;;;;4738069;55;21049;-30
2021/11/16 21:58:34;;;;;;;144.90;115.55;;;21.80;51.20;;;;;;4746483;55;21002;-30
2021/11/16 22:03:35;;;;;;;140.43;113.47;;;21.80;51.20;;;;;;4779751;55;21002;-33
2021/11/16 22:08:39;;;;;;;144.73;115.35;;;21.80;51.20;;;;;;4774137;55;21504;-34
2021/11/16 22:13:40;;;;;;;146.60;116.65;;;21.70;51.10;;;;;;4743061;55;21503;-30
2021/11/16 22:18:41;;;;;;;145.65;115.70;;;21.80;51.10;;;;;;4743176;55;21538;-27
2021/11/16 22:23:42;;;;;;;144.30;116.37;;;21.70;51.10;;;;;;4745660;55;22314;-29
2021/11/16 22:28:44;;;;;;;149.30;116.70;;;21.70;51.10;;;;;;4738042;59;21590;-29
2021/11/16 22:33:49;;;;;;;146.57;115.93;;;21.80;51.10;;;;;;4752004;55;21519;-31
2021/11/16 22:38:54;;;;;;;149.32;116.65;;;21.70;51.00;;;;;;4766674;55;21531;-30
2021/11/16 22:43:56;;;;;;;143.75;115.45;;;21.70;50.90;;;;;;4757318;55;21504;-29
2021/11/16 22:48:57;;;;;;;144.85;115.65;;;21.70;50.90;;;;;;4748471;55;22101;-28
2021/11/16 22:53:59;;;;;;;146.43;115.68;;;21.70;50.90;;;;;;4754757;55;21010;-32
2021/11/16 22:59:17;;;;;;;149.38;116.82;;;21.70;50.90;;;;;;4738196;59;21070;-29
2021/11/16 23:05:20;;;;;;;145.07;115.30;;;21.70;50.80;;;;;;4774472;55;21491;-31
